首页
METAR-TAF:

METAR-TAF

机场 :

東京國際機場

东京国际机场, 日本

纬度: 35-33N, 经度: 139-47E, 海拔: 5米

当前天气观测

该预报发布于28分钟前的09:00 UTC
风速14节,风向东转东北
温度 15°C
湿度 59%
气压 1016 hPa
能见度10公里或以上
少量云层高于6000英尺

METAR: RJTT 140900Z 06014KT 9999 FEW060 15/07 Q1016 NOSIG RMK 1SC060 A3003

时间: 18:28 (09:28 UTC)

预报

该预报发布于1小时和51分钟前的07:37 UTC
预报有效从14日的 07点(UTC)到 15日的 12点(UTC)
风速13节,风向
能见度10公里或以上
少量云层高于3000英尺
成为
从 14日的 10点(UTC)到 14日的 12点(UTC)
风速12节,风向
成为
从 15日的 06点(UTC)到 15日的 09点(UTC)
风速10节,风向东转东南

TAF: RJTT 140737Z 1407/1512 08013KT 9999 FEW030 BECMG 1410/1412 36012KT BECMG 1506/1509 11010KT

超过4000个机场的气象观测和天气预报(METAR&TAF报告)。

可查询的气象台以黄色和红色小点在地图上表示。

将鼠标移到小点上方,可查看气象台名称。

然后点击查看天气观测和预报。

如需切换地图:点击带黑十字的绿色按钮放大地图;点击带横线的绿色按钮缩小地图;或者点击绿色箭头查看邻近地区的地图。


METAR-TAF: